Firebaugh, California
Current Conditions -  °F | °C
As of 4:53 PM on Monday 20 Oct 2014 (Local Time) from KMAE Reporting Station
Clear Clear  
Wind Chill: 79°   Ceiling: Unl
Heat Index: 79°   Visibility: 10mi
Dew Point: 44°   Wind: 10mph
Humidity: 29%   Direction: 310°NW
Pressure: 29.89"   Gusts: NA
Location:  36.86°N, 120.46°W
Report Text: KMAE 202353Z AUTO 31009KT 10SM CLR 26/07 A2989 RMK AO2 SLP118 T02610067 10267 20211 56008
Loading
Personal Weather Stations






























Interactive Weather Map
Tropical Storm Tracking
New forecast layout! Learn more

10-Day Weather Forecast

Advertisements
Track Severe Weather on mobile